BIENTÔT MET'MAP
version 2.0 !

Prévue avant fin octobre,
la nouvelle version sera
plus belle, plus complète
et hébergée sur un serveur
3 fois plus puissant...
et toujours gratuite !


Pas compatible ?
Essayez la version Mobile !

SE CONNECTER : | S'inscrire | Disclaimer | Découvrir Orbifly |
Code OACI :
Lgende : VFR VFR Marginal IFR IFR Intensif IFR Trs Intensif
Visi :
Plafond :
>= 8 km
>= 3000ft
5 8 km
1000 3000 ft
1500m 5 km
500 1000 ft
800 1500m
200 500 ft
< 800m
< 200 ft

METAR - LICT Vincenzo Florio Trapani - 03 Dec 2020 20:04 UTC - Data Source NOAA   


- Altitude de l'aérodrome : 25 ft
- Code IATA : TPS
- Pas de NOTAMs connus.


LICT - Vincenzo Florio Trapani

Dernier METAR connu : 2015/08/11 07:55 LICT 110755Z 25012KT 9999 FEW014CB FEW019TCU SCT023 29/20 Q1011
TAF TAF LICT
Valide du 03 à 18h jusqu'au 04 à 03h UTC


031700Z 0318/0403 31016KT 9999 FEW020
TEMPO 0401/0403 25005KT

Source NOAA


MET'MAP, la Météo Aéronautique d'un coup d'oeil ! - Copyright ORBIFLY Décembre 2007

Développement & Programmation : Alexandra Zaïnal
Co-Développement : Marc-Olivier Méhu
Soutien technique & logistique : Manuel Goepfert
Conception & Financement : Baudouin d'Aumeries